sensor_id;sensor_type;location;lat;lon;timestamp;temperature;humidity
29849;DHT22;16728;50.832;5.590;2023-03-12T00:01:30;4.40;99.90
29849;DHT22;16728;50.832;5.590;2023-03-12T00:04:33;4.40;99.90
29849;DHT22;16728;50.832;5.590;2023-03-12T00:07:36;4.50;99.90
29849;DHT22;16728;50.832;5.590;2023-03-12T00:10:40;4.60;99.90
29849;DHT22;16728;50.832;5.590;2023-03-12T00:13:43;4.60;99.90
29849;DHT22;16728;50.832;5.590;2023-03-12T00:16:45;4.60;99.90
29849;DHT22;16728;50.832;5.590;2023-03-12T00:19:51;4.60;99.90
29849;DHT22;16728;50.832;5.590;2023-03-12T00:22:53;4.50;99.90
29849;DHT22;16728;50.832;5.590;2023-03-12T00:26:06;4.60;99.90
29849;DHT22;16728;50.832;5.590;2023-03-12T00:29:09;4.60;99.90
29849;DHT22;16728;50.832;5.590;2023-03-12T00:32:10;4.60;99.90
29849;DHT22;16728;50.832;5.590;2023-03-12T00:35:12;4.50;99.90
29849;DHT22;16728;50.832;5.590;2023-03-12T00:38:14;4.50;99.90
29849;DHT22;16728;50.832;5.590;2023-03-12T00:41:17;4.50;99.90
29849;DHT22;16728;50.832;5.590;2023-03-12T00:44:20;4.50;99.90
29849;DHT22;16728;50.832;5.590;2023-03-12T00:47:22;4.40;99.90
29849;DHT22;16728;50.832;5.590;2023-03-12T00:50:24;4.40;99.90
29849;DHT22;16728;50.832;5.590;2023-03-12T00:53:26;4.40;99.90
29849;DHT22;16728;50.832;5.590;2023-03-12T00:56:28;4.40;99.90
29849;DHT22;16728;50.832;5.590;2023-03-12T00:59:30;4.50;99.90
29849;DHT22;16728;50.832;5.590;2023-03-12T01:02:33;4.40;99.90
29849;DHT22;16728;50.832;5.590;2023-03-12T01:05:34;4.50;99.90
29849;DHT22;16728;50.832;5.590;2023-03-12T01:08:38;4.50;99.90
29849;DHT22;16728;50.832;5.590;2023-03-12T01:11:41;4.50;99.90
29849;DHT22;16728;50.832;5.590;2023-03-12T01:14:42;4.50;99.90
29849;DHT22;16728;50.832;5.590;2023-03-12T01:17:44;4.60;99.90
29849;DHT22;16728;50.832;5.590;2023-03-12T01:20:46;4.60;99.90
29849;DHT22;16728;50.832;5.590;2023-03-12T01:23:49;4.60;99.90
29849;DHT22;16728;50.832;5.590;2023-03-12T01:26:51;4.50;99.90
29849;DHT22;16728;50.832;5.590;2023-03-12T01:29:53;4.60;99.90
29849;DHT22;16728;50.832;5.590;2023-03-12T01:32:56;4.60;99.90
29849;DHT22;16728;50.832;5.590;2023-03-12T01:35:58;4.60;99.90
29849;DHT22;16728;50.832;5.590;2023-03-12T01:39:00;4.60;99.90
29849;DHT22;16728;50.832;5.590;2023-03-12T01:42:03;4.60;99.90
29849;DHT22;16728;50.832;5.590;2023-03-12T01:45:05;4.60;99.90
29849;DHT22;16728;50.832;5.590;2023-03-12T01:48:09;4.70;99.90
29849;DHT22;16728;50.832;5.590;2023-03-12T01:51:13;4.70;99.90
29849;DHT22;16728;50.832;5.590;2023-03-12T01:54:22;4.80;99.90
29849;DHT22;16728;50.832;5.590;2023-03-12T01:57:31;4.80;99.90
29849;DHT22;16728;50.832;5.590;2023-03-12T02:00:35;4.70;99.90
29849;DHT22;16728;50.832;5.590;2023-03-12T02:03:37;4.80;99.90
29849;DHT22;16728;50.832;5.590;2023-03-12T02:07:09;4.80;99.90
29849;DHT22;16728;50.832;5.590;2023-03-12T02:10:12;4.70;99.90
29849;DHT22;16728;50.832;5.590;2023-03-12T02:13:14;4.80;99.90
29849;DHT22;16728;50.832;5.590;2023-03-12T02:16:17;4.80;99.90
29849;DHT22;16728;50.832;5.590;2023-03-12T02:19:53;4.80;99.90
29849;DHT22;16728;50.832;5.590;2023-03-12T02:23:02;4.80;99.90
29849;DHT22;16728;50.832;5.590;2023-03-12T02:26:07;4.80;99.90
29849;DHT22;16728;50.832;5.590;2023-03-12T02:29:11;4.80;99.90
29849;DHT22;16728;50.832;5.590;2023-03-12T02:32:25;4.80;99.90
29849;DHT22;16728;50.832;5.590;2023-03-12T02:35:28;4.90;99.90
29849;DHT22;16728;50.832;5.590;2023-03-12T02:38:38;4.80;99.90
29849;DHT22;16728;50.832;5.590;2023-03-12T02:41:58;4.80;99.90
29849;DHT22;16728;50.832;5.590;2023-03-12T02:45:01;4.80;99.90
29849;DHT22;16728;50.832;5.590;2023-03-12T02:48:07;4.90;99.90
29849;DHT22;16728;50.832;5.590;2023-03-12T02:51:09;4.80;99.90
29849;DHT22;16728;50.832;5.590;2023-03-12T02:54:12;4.90;99.90
29849;DHT22;16728;50.832;5.590;2023-03-12T02:57:15;4.80;99.90
29849;DHT22;16728;50.832;5.590;2023-03-12T03:00:18;4.80;99.90
29849;DHT22;16728;50.832;5.590;2023-03-12T03:03:20;4.90;99.90
29849;DHT22;16728;50.832;5.590;2023-03-12T03:06:22;4.80;99.90
29849;DHT22;16728;50.832;5.590;2023-03-12T03:09:24;4.80;99.90
29849;DHT22;16728;50.832;5.590;2023-03-12T03:12:27;4.80;99.90
29849;DHT22;16728;50.832;5.590;2023-03-12T03:15:29;4.80;99.90
29849;DHT22;16728;50.832;5.590;2023-03-12T03:18:31;4.90;99.90
29849;DHT22;16728;50.832;5.590;2023-03-12T03:21:33;4.80;99.90
29849;DHT22;16728;50.832;5.590;2023-03-12T03:24:35;4.90;99.90
29849;DHT22;16728;50.832;5.590;2023-03-12T03:27:37;4.80;99.90
29849;DHT22;16728;50.832;5.590;2023-03-12T03:30:40;4.80;99.90
29849;DHT22;16728;50.832;5.590;2023-03-12T03:33:42;4.80;99.90
29849;DHT22;16728;50.832;5.590;2023-03-12T03:36:44;4.80;99.90
29849;DHT22;16728;50.832;5.590;2023-03-12T03:39:46;4.80;99.90
29849;DHT22;16728;50.832;5.590;2023-03-12T03:42:48;4.80;99.90
29849;DHT22;16728;50.832;5.590;2023-03-12T03:46:16;4.80;99.90
29849;DHT22;16728;50.832;5.590;2023-03-12T03:49:18;4.80;99.90
29849;DHT22;16728;50.832;5.590;2023-03-12T03:52:20;4.90;99.90
29849;DHT22;16728;50.832;5.590;2023-03-12T03:55:22;4.90;99.90
29849;DHT22;16728;50.832;5.590;2023-03-12T03:58:24;4.90;99.90
29849;DHT22;16728;50.832;5.590;2023-03-12T04:01:27;4.90;99.90
29849;DHT22;16728;50.832;5.590;2023-03-12T04:04:29;4.80;99.90
29849;DHT22;16728;50.832;5.590;2023-03-12T04:07:32;4.80;99.90
29849;DHT22;16728;50.832;5.590;2023-03-12T04:10:34;4.80;99.90
29849;DHT22;16728;50.832;5.590;2023-03-12T04:13:38;4.80;99.90
29849;DHT22;16728;50.832;5.590;2023-03-12T04:16:40;4.80;99.90
29849;DHT22;16728;50.832;5.590;2023-03-12T04:19:42;4.90;99.90
29849;DHT22;16728;50.832;5.590;2023-03-12T04:22:44;4.90;99.90
29849;DHT22;16728;50.832;5.590;2023-03-12T04:25:46;4.90;99.90
29849;DHT22;16728;50.832;5.590;2023-03-12T04:28:48;4.90;99.90
29849;DHT22;16728;50.832;5.590;2023-03-12T04:31:50;4.90;99.90
29849;DHT22;16728;50.832;5.590;2023-03-12T04:34:52;4.80;99.90
29849;DHT22;16728;50.832;5.590;2023-03-12T04:37:54;4.80;99.90
29849;DHT22;16728;50.832;5.590;2023-03-12T04:41:00;4.80;99.90
29849;DHT22;16728;50.832;5.590;2023-03-12T04:44:02;4.80;99.90
29849;DHT22;16728;50.832;5.590;2023-03-12T04:47:05;4.80;99.90
29849;DHT22;16728;50.832;5.590;2023-03-12T04:50:08;4.80;99.90
29849;DHT22;16728;50.832;5.590;2023-03-12T04:53:10;4.80;99.90
29849;DHT22;16728;50.832;5.590;2023-03-12T04:56:12;4.80;99.90
29849;DHT22;16728;50.832;5.590;2023-03-12T04:59:15;4.80;99.90
29849;DHT22;16728;50.832;5.590;2023-03-12T05:02:17;4.90;99.90
29849;DHT22;16728;50.832;5.590;2023-03-12T05:05:19;4.90;99.90
29849;DHT22;16728;50.832;5.590;2023-03-12T05:08:21;5.00;99.90
29849;DHT22;16728;50.832;5.590;2023-03-12T05:11:23;5.00;99.90
29849;DHT22;16728;50.832;5.590;2023-03-12T05:14:26;5.10;99.90
29849;DHT22;16728;50.832;5.590;2023-03-12T05:17:28;5.00;99.90
29849;DHT22;16728;50.832;5.590;2023-03-12T05:20:30;5.10;99.90
29849;DHT22;16728;50.832;5.590;2023-03-12T05:23:33;5.10;99.90
29849;DHT22;16728;50.832;5.590;2023-03-12T05:26:35;5.10;99.90
29849;DHT22;16728;50.832;5.590;2023-03-12T05:29:38;5.10;99.90
29849;DHT22;16728;50.832;5.590;2023-03-12T05:32:40;5.10;99.90
29849;DHT22;16728;50.832;5.590;2023-03-12T05:35:42;5.10;99.90
29849;DHT22;16728;50.832;5.590;2023-03-12T05:38:45;5.10;99.90
29849;DHT22;16728;50.832;5.590;2023-03-12T05:41:47;5.10;99.90
29849;DHT22;16728;50.832;5.590;2023-03-12T05:44:49;5.20;99.90
29849;DHT22;16728;50.832;5.590;2023-03-12T05:47:52;5.20;99.90
29849;DHT22;16728;50.832;5.590;2023-03-12T05:50:54;5.30;99.90
29849;DHT22;16728;50.832;5.590;2023-03-12T05:53:56;5.30;99.90
29849;DHT22;16728;50.832;5.590;2023-03-12T05:56:58;5.30;99.90
29849;DHT22;16728;50.832;5.590;2023-03-12T06:00:00;5.30;99.90
29849;DHT22;16728;50.832;5.590;2023-03-12T06:03:02;5.30;99.90
29849;DHT22;16728;50.832;5.590;2023-03-12T06:06:04;5.40;99.90
29849;DHT22;16728;50.832;5.590;2023-03-12T06:09:06;5.40;99.90
29849;DHT22;16728;50.832;5.590;2023-03-12T06:12:08;5.50;99.90
29849;DHT22;16728;50.832;5.590;2023-03-12T06:15:11;5.40;99.90
29849;DHT22;16728;50.832;5.590;2023-03-12T06:18:13;5.50;99.90
29849;DHT22;16728;50.832;5.590;2023-03-12T06:21:21;5.50;99.90
29849;DHT22;16728;50.832;5.590;2023-03-12T06:24:23;5.50;99.90
29849;DHT22;16728;50.832;5.590;2023-03-12T06:27:25;5.50;99.90
29849;DHT22;16728;50.832;5.590;2023-03-12T06:30:27;5.60;99.90
29849;DHT22;16728;50.832;5.590;2023-03-12T06:33:29;5.60;99.90
29849;DHT22;16728;50.832;5.590;2023-03-12T06:36:31;5.60;99.90
29849;DHT22;16728;50.832;5.590;2023-03-12T06:39:33;5.70;99.90
29849;DHT22;16728;50.832;5.590;2023-03-12T06:42:35;5.60;99.90
29849;DHT22;16728;50.832;5.590;2023-03-12T06:45:37;5.60;99.90
29849;DHT22;16728;50.832;5.590;2023-03-12T06:48:40;5.70;99.90
29849;DHT22;16728;50.832;5.590;2023-03-12T06:51:42;5.70;99.90
29849;DHT22;16728;50.832;5.590;2023-03-12T06:54:44;5.70;99.90
29849;DHT22;16728;50.832;5.590;2023-03-12T06:57:46;5.70;99.90
29849;DHT22;16728;50.832;5.590;2023-03-12T07:00:48;5.70;99.90
29849;DHT22;16728;50.832;5.590;2023-03-12T07:03:50;5.70;99.90
29849;DHT22;16728;50.832;5.590;2023-03-12T07:06:52;5.80;99.90
29849;DHT22;16728;50.832;5.590;2023-03-12T07:09:54;5.80;99.90
29849;DHT22;16728;50.832;5.590;2023-03-12T07:12:56;5.90;99.90
29849;DHT22;16728;50.832;5.590;2023-03-12T07:15:58;5.80;99.90
29849;DHT22;16728;50.832;5.590;2023-03-12T07:19:00;5.90;99.90
29849;DHT22;16728;50.832;5.590;2023-03-12T07:22:02;5.90;99.90
29849;DHT22;16728;50.832;5.590;2023-03-12T07:25:05;5.90;99.90
29849;DHT22;16728;50.832;5.590;2023-03-12T07:28:07;6.00;99.90
29849;DHT22;16728;50.832;5.590;2023-03-12T07:31:09;5.90;99.90
29849;DHT22;16728;50.832;5.590;2023-03-12T07:34:11;6.00;99.90
29849;DHT22;16728;50.832;5.590;2023-03-12T07:37:14;6.00;99.90
29849;DHT22;16728;50.832;5.590;2023-03-12T07:40:16;6.10;99.90
29849;DHT22;16728;50.832;5.590;2023-03-12T07:43:18;6.10;99.90
29849;DHT22;16728;50.832;5.590;2023-03-12T07:46:22;6.10;99.90
29849;DHT22;16728;50.832;5.590;2023-03-12T07:49:24;6.20;99.90
29849;DHT22;16728;50.832;5.590;2023-03-12T07:52:28;6.20;99.90
29849;DHT22;16728;50.832;5.590;2023-03-12T07:55:31;6.20;99.90
29849;DHT22;16728;50.832;5.590;2023-03-12T07:58:33;6.30;99.90
29849;DHT22;16728;50.832;5.590;2023-03-12T08:01:37;6.30;99.90
29849;DHT22;16728;50.832;5.590;2023-03-12T08:04:39;6.30;99.90
29849;DHT22;16728;50.832;5.590;2023-03-12T08:07:41;6.40;99.90
29849;DHT22;16728;50.832;5.590;2023-03-12T08:10:44;6.50;99.90
29849;DHT22;16728;50.832;5.590;2023-03-12T08:13:46;6.50;99.90
29849;DHT22;16728;50.832;5.590;2023-03-12T08:16:50;6.60;99.90
29849;DHT22;16728;50.832;5.590;2023-03-12T08:19:51;6.70;99.90
29849;DHT22;16728;50.832;5.590;2023-03-12T08:22:53;6.70;99.90
29849;DHT22;16728;50.832;5.590;2023-03-12T08:25:57;6.80;99.90
29849;DHT22;16728;50.832;5.590;2023-03-12T08:28:59;6.90;99.90
29849;DHT22;16728;50.832;5.590;2023-03-12T08:32:01;6.90;99.90
29849;DHT22;16728;50.832;5.590;2023-03-12T08:35:06;6.90;99.90
29849;DHT22;16728;50.832;5.590;2023-03-12T08:38:08;7.00;99.90
29849;DHT22;16728;50.832;5.590;2023-03-12T08:41:10;7.10;99.90
29849;DHT22;16728;50.832;5.590;2023-03-12T08:44:12;7.10;99.90
29849;DHT22;16728;50.832;5.590;2023-03-12T08:47:14;7.20;99.90
29849;DHT22;16728;50.832;5.590;2023-03-12T08:50:16;7.20;99.90
29849;DHT22;16728;50.832;5.590;2023-03-12T08:53:18;7.20;99.90
29849;DHT22;16728;50.832;5.590;2023-03-12T08:56:23;7.30;99.90
29849;DHT22;16728;50.832;5.590;2023-03-12T08:59:25;7.30;99.90
29849;DHT22;16728;50.832;5.590;2023-03-12T09:02:27;7.40;99.90
29849;DHT22;16728;50.832;5.590;2023-03-12T09:05:29;7.40;99.90
29849;DHT22;16728;50.832;5.590;2023-03-12T09:08:31;7.50;99.90
29849;DHT22;16728;50.832;5.590;2023-03-12T09:11:36;7.50;99.90
29849;DHT22;16728;50.832;5.590;2023-03-12T09:14:41;7.60;99.90
29849;DHT22;16728;50.832;5.590;2023-03-12T09:18:03;7.70;99.90
29849;DHT22;16728;50.832;5.590;2023-03-12T09:21:05;7.70;99.90
29849;DHT22;16728;50.832;5.590;2023-03-12T09:24:08;7.80;99.90
29849;DHT22;16728;50.832;5.590;2023-03-12T09:27:10;7.80;99.90
29849;DHT22;16728;50.832;5.590;2023-03-12T09:30:18;7.80;99.90
29849;DHT22;16728;50.832;5.590;2023-03-12T09:33:20;7.80;99.90
29849;DHT22;16728;50.832;5.590;2023-03-12T09:36:22;7.90;99.90
29849;DHT22;16728;50.832;5.590;2023-03-12T09:39:24;8.00;99.90
29849;DHT22;16728;50.832;5.590;2023-03-12T09:42:30;8.00;99.90
29849;DHT22;16728;50.832;5.590;2023-03-12T09:45:40;8.10;99.90
29849;DHT22;16728;50.832;5.590;2023-03-12T09:48:44;8.20;99.90
29849;DHT22;16728;50.832;5.590;2023-03-12T09:51:52;8.20;99.90
29849;DHT22;16728;50.832;5.590;2023-03-12T09:55:16;8.30;99.90
29849;DHT22;16728;50.832;5.590;2023-03-12T09:58:30;8.30;99.90
29849;DHT22;16728;50.832;5.590;2023-03-12T10:01:48;8.30;99.90
29849;DHT22;16728;50.832;5.590;2023-03-12T10:05:06;8.30;99.90
29849;DHT22;16728;50.832;5.590;2023-03-12T10:18:51;8.40;99.90
29849;DHT22;16728;50.832;5.590;2023-03-12T10:25:45;8.50;99.90
29849;DHT22;16728;50.832;5.590;2023-03-12T10:31:59;8.60;99.90
29849;DHT22;16728;50.832;5.590;2023-03-12T10:38:21;8.80;99.90
29849;DHT22;16728;50.832;5.590;2023-03-12T10:41:30;9.00;99.90
29849;DHT22;16728;50.832;5.590;2023-03-12T10:44:35;9.10;99.90
29849;DHT22;16728;50.832;5.590;2023-03-12T10:47:39;9.30;99.90
29849;DHT22;16728;50.832;5.590;2023-03-12T10:50:41;9.50;99.90
29849;DHT22;16728;50.832;5.590;2023-03-12T10:53:44;9.50;99.90
29849;DHT22;16728;50.832;5.590;2023-03-12T10:56:49;9.60;99.90
29849;DHT22;16728;50.832;5.590;2023-03-12T11:00:04;9.70;99.90
29849;DHT22;16728;50.832;5.590;2023-03-12T11:03:20;9.90;99.90
29849;DHT22;16728;50.832;5.590;2023-03-12T11:06:28;10.00;99.90
29849;DHT22;16728;50.832;5.590;2023-03-12T11:09:30;10.20;99.90
29849;DHT22;16728;50.832;5.590;2023-03-12T11:12:50;10.30;99.90
29849;DHT22;16728;50.832;5.590;2023-03-12T11:15:54;10.40;99.90
29849;DHT22;16728;50.832;5.590;2023-03-12T11:22:05;10.40;99.90
29849;DHT22;16728;50.832;5.590;2023-03-12T11:25:23;10.40;99.90
29849;DHT22;16728;50.832;5.590;2023-03-12T11:28:50;10.40;99.90
29849;DHT22;16728;50.832;5.590;2023-03-12T11:34:57;10.50;99.90
29849;DHT22;16728;50.832;5.590;2023-03-12T11:44:24;10.60;99.90
29849;DHT22;16728;50.832;5.590;2023-03-12T11:57:46;10.60;99.90
29849;DHT22;16728;50.832;5.590;2023-03-12T12:31:47;11.00;99.90
29849;DHT22;16728;50.832;5.590;2023-03-12T12:35:29;11.00;99.90
29849;DHT22;16728;50.832;5.590;2023-03-12T12:38:35;11.00;99.90
29849;DHT22;16728;50.832;5.590;2023-03-12T12:41:42;11.00;99.90
29849;DHT22;16728;50.832;5.590;2023-03-12T12:44:48;11.10;99.90
29849;DHT22;16728;50.832;5.590;2023-03-12T12:47:59;11.10;99.90
29849;DHT22;16728;50.832;5.590;2023-03-12T12:51:04;11.20;99.90
29849;DHT22;16728;50.832;5.590;2023-03-12T12:54:11;11.20;99.90
29849;DHT22;16728;50.832;5.590;2023-03-12T13:00:54;11.20;99.90
29849;DHT22;16728;50.832;5.590;2023-03-12T13:04:04;11.20;99.90
29849;DHT22;16728;50.832;5.590;2023-03-12T13:13:35;11.30;99.90
29849;DHT22;16728;50.832;5.590;2023-03-12T13:16:44;11.40;99.90
29849;DHT22;16728;50.832;5.590;2023-03-12T13:19:52;11.30;99.90
29849;DHT22;16728;50.832;5.590;2023-03-12T13:23:29;11.20;99.90
29849;DHT22;16728;50.832;5.590;2023-03-12T13:26:48;11.20;99.90
29849;DHT22;16728;50.832;5.590;2023-03-12T13:29:51;11.20;99.90
29849;DHT22;16728;50.832;5.590;2023-03-12T13:39:27;11.20;99.90
29849;DHT22;16728;50.832;5.590;2023-03-12T13:42:38;11.20;99.90
29849;DHT22;16728;50.832;5.590;2023-03-12T13:48:49;11.30;99.90
29849;DHT22;16728;50.832;5.590;2023-03-12T13:55:23;11.40;99.90
29849;DHT22;16728;50.832;5.590;2023-03-12T13:58:26;11.50;99.90
29849;DHT22;16728;50.832;5.590;2023-03-12T14:01:47;11.60;99.90
29849;DHT22;16728;50.832;5.590;2023-03-12T14:04:49;11.60;99.90
29849;DHT22;16728;50.832;5.590;2023-03-12T14:18:22;11.70;99.90
29849;DHT22;16728;50.832;5.590;2023-03-12T14:21:32;11.70;99.90
29849;DHT22;16728;50.832;5.590;2023-03-12T14:24:41;11.60;99.90
29849;DHT22;16728;50.832;5.590;2023-03-12T14:27:48;11.60;99.90
29849;DHT22;16728;50.832;5.590;2023-03-12T14:30:57;11.60;99.90
29849;DHT22;16728;50.832;5.590;2023-03-12T14:37:24;11.70;99.90
29849;DHT22;16728;50.832;5.590;2023-03-12T14:40:39;11.70;99.90
29849;DHT22;16728;50.832;5.590;2023-03-12T14:43:44;11.60;99.90
29849;DHT22;16728;50.832;5.590;2023-03-12T14:46:55;11.70;99.90
29849;DHT22;16728;50.832;5.590;2023-03-12T14:49:58;11.70;99.90
29849;DHT22;16728;50.832;5.590;2023-03-12T14:53:12;11.60;99.90
29849;DHT22;16728;50.832;5.590;2023-03-12T14:56:21;11.60;99.90
29849;DHT22;16728;50.832;5.590;2023-03-12T14:59:33;11.60;99.90
29849;DHT22;16728;50.832;5.590;2023-03-12T15:02:41;11.60;99.90
29849;DHT22;16728;50.832;5.590;2023-03-12T15:05:45;11.60;99.90
29849;DHT22;16728;50.832;5.590;2023-03-12T15:08:48;11.60;99.90
29849;DHT22;16728;50.832;5.590;2023-03-12T15:12:00;11.60;99.90
29849;DHT22;16728;50.832;5.590;2023-03-12T15:18:29;11.60;99.90
29849;DHT22;16728;50.832;5.590;2023-03-12T15:21:33;11.70;99.90
29849;DHT22;16728;50.832;5.590;2023-03-12T15:24:37;11.60;99.90
29849;DHT22;16728;50.832;5.590;2023-03-12T15:27:40;11.60;99.90
29849;DHT22;16728;50.832;5.590;2023-03-12T15:30:43;11.60;99.90
29849;DHT22;16728;50.832;5.590;2023-03-12T15:33:59;11.60;99.90
29849;DHT22;16728;50.832;5.590;2023-03-12T15:40:25;11.60;99.90
29849;DHT22;16728;50.832;5.590;2023-03-12T15:43:29;11.50;99.90
29849;DHT22;16728;50.832;5.590;2023-03-12T15:46:31;11.50;99.90
29849;DHT22;16728;50.832;5.590;2023-03-12T15:49:35;11.50;99.90
29849;DHT22;16728;50.832;5.590;2023-03-12T15:52:38;11.50;99.90
29849;DHT22;16728;50.832;5.590;2023-03-12T15:55:40;11.50;99.90
29849;DHT22;16728;50.832;5.590;2023-03-12T15:58:42;11.50;99.90
29849;DHT22;16728;50.832;5.590;2023-03-12T16:01:46;11.40;99.90
29849;DHT22;16728;50.832;5.590;2023-03-12T16:04:48;11.40;99.90
29849;DHT22;16728;50.832;5.590;2023-03-12T16:07:50;11.50;99.90
29849;DHT22;16728;50.832;5.590;2023-03-12T16:10:52;11.40;99.90
29849;DHT22;16728;50.832;5.590;2023-03-12T16:14:02;11.50;99.90
29849;DHT22;16728;50.832;5.590;2023-03-12T16:17:12;11.50;99.90
29849;DHT22;16728;50.832;5.590;2023-03-12T16:20:15;11.50;99.90
29849;DHT22;16728;50.832;5.590;2023-03-12T16:23:18;11.40;99.90
29849;DHT22;16728;50.832;5.590;2023-03-12T16:26:20;11.40;99.90
29849;DHT22;16728;50.832;5.590;2023-03-12T16:29:31;11.40;99.90
29849;DHT22;16728;50.832;5.590;2023-03-12T16:32:33;11.40;99.90
29849;DHT22;16728;50.832;5.590;2023-03-12T16:35:35;11.40;99.90
29849;DHT22;16728;50.832;5.590;2023-03-12T16:38:37;11.30;99.90
29849;DHT22;16728;50.832;5.590;2023-03-12T16:41:39;11.40;99.90
29849;DHT22;16728;50.832;5.590;2023-03-12T16:44:42;11.40;99.90
29849;DHT22;16728;50.832;5.590;2023-03-12T16:47:52;11.30;99.90
29849;DHT22;16728;50.832;5.590;2023-03-12T16:50:56;11.20;99.90
29849;DHT22;16728;50.832;5.590;2023-03-12T16:53:59;11.20;99.90
29849;DHT22;16728;50.832;5.590;2023-03-12T16:57:28;11.20;99.90
29849;DHT22;16728;50.832;5.590;2023-03-12T17:00:33;11.20;99.90
29849;DHT22;16728;50.832;5.590;2023-03-12T17:03:39;11.20;99.90
29849;DHT22;16728;50.832;5.590;2023-03-12T17:06:43;11.20;99.90
29849;DHT22;16728;50.832;5.590;2023-03-12T17:09:45;11.20;99.90
29849;DHT22;16728;50.832;5.590;2023-03-12T17:12:48;11.20;99.90
29849;DHT22;16728;50.832;5.590;2023-03-12T17:15:51;11.20;99.90
29849;DHT22;16728;50.832;5.590;2023-03-12T17:18:54;11.20;99.90
29849;DHT22;16728;50.832;5.590;2023-03-12T17:21:56;11.20;99.90
29849;DHT22;16728;50.832;5.590;2023-03-12T17:24:58;11.10;99.90
29849;DHT22;16728;50.832;5.590;2023-03-12T17:28:00;11.10;99.90
29849;DHT22;16728;50.832;5.590;2023-03-12T17:31:03;11.10;99.90
29849;DHT22;16728;50.832;5.590;2023-03-12T17:34:05;11.10;99.90
29849;DHT22;16728;50.832;5.590;2023-03-12T17:37:07;11.10;99.90
29849;DHT22;16728;50.832;5.590;2023-03-12T17:40:09;11.00;99.90
29849;DHT22;16728;50.832;5.590;2023-03-12T17:43:11;11.00;99.90
29849;DHT22;16728;50.832;5.590;2023-03-12T17:46:13;11.00;99.90
29849;DHT22;16728;50.832;5.590;2023-03-12T17:49:15;11.00;99.90
29849;DHT22;16728;50.832;5.590;2023-03-12T17:52:17;11.00;99.90
29849;DHT22;16728;50.832;5.590;2023-03-12T17:55:19;11.00;99.90
29849;DHT22;16728;50.832;5.590;2023-03-12T17:58:21;11.00;99.90
29849;DHT22;16728;50.832;5.590;2023-03-12T18:01:23;11.00;99.90
29849;DHT22;16728;50.832;5.590;2023-03-12T18:04:25;11.00;99.90
29849;DHT22;16728;50.832;5.590;2023-03-12T18:07:27;10.90;99.90
29849;DHT22;16728;50.832;5.590;2023-03-12T18:10:28;10.90;99.90
29849;DHT22;16728;50.832;5.590;2023-03-12T18:13:31;10.90;99.90
29849;DHT22;16728;50.832;5.590;2023-03-12T18:16:33;10.90;99.90
29849;DHT22;16728;50.832;5.590;2023-03-12T18:19:35;10.90;99.90
29849;DHT22;16728;50.832;5.590;2023-03-12T18:25:53;10.80;99.90
29849;DHT22;16728;50.832;5.590;2023-03-12T18:28:54;10.80;99.90
29849;DHT22;16728;50.832;5.590;2023-03-12T18:31:56;10.80;99.90
29849;DHT22;16728;50.832;5.590;2023-03-12T18:34:59;10.70;99.90
29849;DHT22;16728;50.832;5.590;2023-03-12T18:38:01;10.70;99.90
29849;DHT22;16728;50.832;5.590;2023-03-12T18:41:05;10.70;99.90
29849;DHT22;16728;50.832;5.590;2023-03-12T18:44:07;10.60;99.90
29849;DHT22;16728;50.832;5.590;2023-03-12T18:47:09;10.60;99.90
29849;DHT22;16728;50.832;5.590;2023-03-12T18:50:11;10.70;99.90
29849;DHT22;16728;50.832;5.590;2023-03-12T18:53:13;10.70;99.90
29849;DHT22;16728;50.832;5.590;2023-03-12T18:56:15;10.70;99.90
29849;DHT22;16728;50.832;5.590;2023-03-12T18:59:17;10.70;99.90
29849;DHT22;16728;50.832;5.590;2023-03-12T19:02:19;10.60;99.90
29849;DHT22;16728;50.832;5.590;2023-03-12T19:05:21;10.60;99.90
29849;DHT22;16728;50.832;5.590;2023-03-12T19:08:23;10.60;99.90
29849;DHT22;16728;50.832;5.590;2023-03-12T19:11:25;10.60;99.90
29849;DHT22;16728;50.832;5.590;2023-03-12T19:14:29;10.60;99.90
29849;DHT22;16728;50.832;5.590;2023-03-12T19:17:30;10.60;99.90
29849;DHT22;16728;50.832;5.590;2023-03-12T19:20:32;10.70;99.90
29849;DHT22;16728;50.832;5.590;2023-03-12T19:23:34;10.70;99.90
29849;DHT22;16728;50.832;5.590;2023-03-12T19:26:37;10.60;99.90
29849;DHT22;16728;50.832;5.590;2023-03-12T19:29:39;10.60;99.90
29849;DHT22;16728;50.832;5.590;2023-03-12T19:32:41;10.60;99.90
29849;DHT22;16728;50.832;5.590;2023-03-12T19:35:45;10.60;99.90
29849;DHT22;16728;50.832;5.590;2023-03-12T19:38:47;10.60;99.90
29849;DHT22;16728;50.832;5.590;2023-03-12T19:41:49;10.60;99.90
29849;DHT22;16728;50.832;5.590;2023-03-12T19:44:51;10.60;99.90
29849;DHT22;16728;50.832;5.590;2023-03-12T19:47:53;10.60;99.90
29849;DHT22;16728;50.832;5.590;2023-03-12T19:50:55;10.60;99.90
29849;DHT22;16728;50.832;5.590;2023-03-12T19:53:57;10.60;99.90
29849;DHT22;16728;50.832;5.590;2023-03-12T19:56:59;10.50;99.90
29849;DHT22;16728;50.832;5.590;2023-03-12T20:00:01;10.60;99.90
29849;DHT22;16728;50.832;5.590;2023-03-12T20:03:03;10.60;99.90
29849;DHT22;16728;50.832;5.590;2023-03-12T20:06:07;10.60;99.90
29849;DHT22;16728;50.832;5.590;2023-03-12T20:09:10;10.50;99.90
29849;DHT22;16728;50.832;5.590;2023-03-12T20:12:12;10.50;99.90
29849;DHT22;16728;50.832;5.590;2023-03-12T20:15:14;10.50;99.90
29849;DHT22;16728;50.832;5.590;2023-03-12T20:18:17;10.50;99.90
29849;DHT22;16728;50.832;5.590;2023-03-12T20:21:18;10.50;99.90
29849;DHT22;16728;50.832;5.590;2023-03-12T20:24:20;10.50;99.90
29849;DHT22;16728;50.832;5.590;2023-03-12T20:27:22;10.40;99.90
29849;DHT22;16728;50.832;5.590;2023-03-12T20:30:24;10.40;99.90
29849;DHT22;16728;50.832;5.590;2023-03-12T20:33:26;10.30;99.90
29849;DHT22;16728;50.832;5.590;2023-03-12T20:36:28;10.40;99.90
29849;DHT22;16728;50.832;5.590;2023-03-12T20:39:30;10.40;99.90
29849;DHT22;16728;50.832;5.590;2023-03-12T20:42:32;10.40;99.90
29849;DHT22;16728;50.832;5.590;2023-03-12T20:45:34;10.40;99.90
29849;DHT22;16728;50.832;5.590;2023-03-12T20:48:36;10.40;99.90
29849;DHT22;16728;50.832;5.590;2023-03-12T20:51:38;10.30;99.90
29849;DHT22;16728;50.832;5.590;2023-03-12T20:54:41;10.30;99.90
29849;DHT22;16728;50.832;5.590;2023-03-12T20:57:43;10.30;99.90
29849;DHT22;16728;50.832;5.590;2023-03-12T21:00:45;10.30;99.90
29849;DHT22;16728;50.832;5.590;2023-03-12T21:03:47;10.30;99.90
29849;DHT22;16728;50.832;5.590;2023-03-12T21:06:49;10.30;99.90
29849;DHT22;16728;50.832;5.590;2023-03-12T21:09:52;10.30;99.90
29849;DHT22;16728;50.832;5.590;2023-03-12T21:12:55;10.30;99.90
29849;DHT22;16728;50.832;5.590;2023-03-12T21:15:57;10.30;99.90
29849;DHT22;16728;50.832;5.590;2023-03-12T21:19:00;10.30;99.90
29849;DHT22;16728;50.832;5.590;2023-03-12T21:22:02;10.30;99.90
29849;DHT22;16728;50.832;5.590;2023-03-12T21:25:05;10.40;99.90
29849;DHT22;16728;50.832;5.590;2023-03-12T21:28:08;10.40;99.90
29849;DHT22;16728;50.832;5.590;2023-03-12T21:31:12;10.40;99.90
29849;DHT22;16728;50.832;5.590;2023-03-12T21:34:15;10.40;99.90
29849;DHT22;16728;50.832;5.590;2023-03-12T21:37:17;10.40;99.90